Time;durP1;ratioP1;P1;durP2;ratioP2;P2;SDS_P1;SDS_P2;PMS_P1;PMS_P2;Temp;Humidity;BMP_temperature;BMP_pressure;BME280_temperature;BME280_humidity;BME280_pressure;Samples;Min_cycle;Max_cycle;Signal;HPM_P1;HPM_P2
2022/03/16 00:02:20;;;;;;;36.10;16.27;;;2.00;1.00;;;;;;5073514;28;20217;-69
2022/03/16 00:04:49;;;;;;;32.27;17.27;;;1.80;1.00;;;;;;5091893;28;20419;-65
2022/03/16 00:07:16;;;;;;;31.67;15.53;;;1.80;1.00;;;;;;5093924;28;20400;-63
2022/03/16 00:09:41;;;;;;;32.10;16.17;;;1.90;1.00;;;;;;5080076;28;20504;-63
2022/03/16 00:12:08;;;;;;;23.00;14.30;;;2.00;1.00;;;;;;5093473;28;20898;-68
2022/03/16 00:14:33;;;;;;;29.70;15.30;;;2.10;1.00;;;;;;5077125;28;20265;-63
2022/03/16 00:16:59;;;;;;;32.20;17.77;;;2.10;1.00;;;;;;5073396;28;20534;-68
2022/03/16 00:19:24;;;;;;;32.77;14.70;;;2.20;1.00;;;;;;5086723;28;20177;-66
2022/03/16 00:21:50;;;;;;;33.67;15.77;;;2.10;1.00;;;;;;5092957;28;20189;-69
2022/03/16 00:24:16;;;;;;;33.30;15.93;;;2.20;1.00;;;;;;5079862;28;20184;-69
2022/03/16 00:26:41;;;;;;;26.87;16.50;;;2.30;1.00;;;;;;5075382;28;20166;-68
2022/03/16 00:29:07;;;;;;;27.50;17.40;;;2.40;1.00;;;;;;5072362;28;20170;-64
2022/03/16 00:31:34;;;;;;;27.47;15.20;;;2.50;1.00;;;;;;5077802;28;20391;-63
2022/03/16 00:34:00;;;;;;;37.93;18.70;;;2.50;1.00;;;;;;5093382;28;20691;-63
2022/03/16 00:36:26;;;;;;;26.83;14.80;;;2.60;1.00;;;;;;5089584;28;20420;-64
2022/03/16 00:38:51;;;;;;;25.53;14.90;;;2.60;1.00;;;;;;5072190;28;20418;-63
2022/03/16 00:41:17;;;;;;;27.80;15.07;;;2.60;1.00;;;;;;5073502;28;20246;-69
2022/03/16 00:43:44;;;;;;;31.60;14.53;;;2.70;1.00;;;;;;5088478;28;20253;-69
2022/03/16 00:46:09;;;;;;;35.73;17.00;;;2.60;1.00;;;;;;5089308;28;20170;-70
2022/03/16 00:48:35;;;;;;;35.83;16.90;;;2.60;1.00;;;;;;5092177;28;20400;-70
2022/03/16 00:51:01;;;;;;;27.47;17.20;;;2.70;11.70;;;;;;5071283;28;20181;-64
2022/03/16 00:53:27;;;;;;;37.43;15.30;;;2.60;13.70;;;;;;5072757;28;20268;-69
2022/03/16 00:55:54;;;;;;;25.67;13.87;;;2.60;18.90;;;;;;5074524;28;20439;-64
2022/03/16 00:58:19;;;;;;;29.80;15.27;;;2.60;26.70;;;;;;5091902;28;20407;-69
2022/03/16 01:00:45;;;;;;;25.13;14.10;;;2.60;39.80;;;;;;5053803;28;20235;-63
2022/03/16 01:03:12;;;;;;;26.00;14.60;;;2.60;52.40;;;;;;5061974;28;20173;-69
2022/03/16 01:05:37;;;;;;;22.73;11.70;;;2.70;64.80;;;;;;5093003;28;20619;-63
2022/03/16 01:08:03;;;;;;;37.40;14.77;;;2.80;75.70;;;;;;5092338;28;20430;-69
2022/03/16 01:10:29;;;;;;;23.70;14.07;;;2.80;82.70;;;;;;5091718;28;20189;-70
2022/03/16 01:12:55;;;;;;;31.03;12.57;;;2.80;91.20;;;;;;5091883;28;20507;-64
2022/03/16 01:15:23;;;;;;;29.53;11.97;;;2.70;91.50;;;;;;5073906;28;20640;-68
2022/03/16 01:17:50;;;;;;;15.77;11.27;;;2.80;96.20;;;;;;5072730;28;20393;-64
2022/03/16 01:20:16;;;;;;;19.37;11.40;;;2.80;99.90;;;;;;5090464;28;20412;-64
2022/03/16 01:22:42;;;;;;;12.40;10.10;;;2.80;99.90;;;;;;5074602;28;20853;-65
2022/03/16 01:25:08;;;;;;;17.97;10.80;;;2.90;99.90;;;;;;5074780;28;20504;-64
2022/03/16 01:27:34;;;;;;;15.30;11.10;;;2.90;99.90;;;;;;5072602;28;20174;-64
2022/03/16 01:29:59;;;;;;;17.23;10.80;;;2.90;99.90;;;;;;5087357;28;20427;-69
2022/03/16 01:32:25;;;;;;;14.00;10.00;;;2.90;99.90;;;;;;5090846;28;20209;-64
2022/03/16 01:34:50;;;;;;;14.30;10.07;;;2.90;99.90;;;;;;5081606;28;20170;-64
2022/03/16 01:37:16;;;;;;;19.00;10.10;;;2.90;99.90;;;;;;5075963;28;20174;-69
2022/03/16 01:39:42;;;;;;;16.17;10.13;;;3.00;99.90;;;;;;5073199;28;20693;-64
2022/03/16 01:42:08;;;;;;;14.67;9.90;;;3.00;99.90;;;;;;5096542;28;20205;-69
2022/03/16 01:45:03;;;;;;;12.97;9.63;;;3.10;99.90;;;;;;5082226;28;20174;-65
2022/03/16 01:47:28;;;;;;;22.60;9.80;;;3.00;99.90;;;;;;5064771;28;20470;-69
2022/03/16 01:49:55;;;;;;;11.90;9.10;;;2.80;99.90;;;;;;5087959;28;20941;-69
2022/03/16 01:52:25;;;;;;;18.63;9.87;;;2.70;99.90;;;;;;5096310;28;20282;-64
2022/03/16 01:54:51;;;;;;;13.90;9.67;;;2.50;99.90;;;;;;5076794;28;20424;-64
2022/03/16 01:57:18;;;;;;;10.40;9.30;;;2.50;99.90;;;;;;5075509;28;20412;-64
2022/03/16 01:59:44;;;;;;;21.10;9.77;;;2.40;99.90;;;;;;5092451;28;20170;-70
2022/03/16 02:02:11;;;;;;;13.90;9.70;;;2.30;99.90;;;;;;5090383;28;20528;-69
2022/03/16 02:04:36;;;;;;;14.97;9.50;;;2.30;99.90;;;;;;5083422;28;20480;-70
2022/03/16 02:07:03;;;;;;;13.30;8.40;;;2.20;99.90;;;;;;5092121;28;20448;-69
2022/03/16 02:09:29;;;;;;;9.67;8.27;;;2.20;99.90;;;;;;5075035;28;20232;-64
2022/03/16 02:11:55;;;;;;;8.70;7.80;;;2.20;99.90;;;;;;5093432;28;20463;-64
2022/03/16 02:14:21;;;;;;;10.83;8.70;;;2.20;99.90;;;;;;5095835;28;20402;-65
2022/03/16 02:16:48;;;;;;;13.73;8.30;;;2.10;99.90;;;;;;5079452;28;20946;-64
2022/03/16 02:19:15;;;;;;;12.23;8.80;;;1.90;99.90;;;;;;5056851;28;20535;-64
2022/03/16 02:21:44;;;;;;;11.30;8.90;;;1.90;99.90;;;;;;5088094;28;20446;-64
2022/03/16 02:24:10;;;;;;;15.40;11.00;;;2.00;99.90;;;;;;5095878;28;20395;-65
2022/03/16 02:26:36;;;;;;;10.80;8.90;;;2.10;99.90;;;;;;5082523;28;20751;-64
2022/03/16 02:29:02;;;;;;;12.47;8.17;;;2.20;99.90;;;;;;5074663;28;20184;-70
2022/03/16 02:31:28;;;;;;;13.23;10.33;;;2.20;99.90;;;;;;5086433;28;20845;-69
2022/03/16 02:33:54;;;;;;;9.90;8.03;;;2.10;99.90;;;;;;5095218;28;20650;-69
2022/03/16 02:36:20;;;;;;;11.83;9.70;;;2.10;99.90;;;;;;5085854;28;20174;-64
2022/03/16 02:38:46;;;;;;;10.70;9.13;;;1.90;99.90;;;;;;5075488;28;20635;-67
2022/03/16 02:41:11;;;;;;;11.57;8.67;;;1.90;99.90;;;;;;5082620;28;20438;-69
2022/03/16 02:43:38;;;;;;;11.13;8.77;;;1.90;99.90;;;;;;5095447;28;20169;-64
2022/03/16 02:46:04;;;;;;;12.00;9.53;;;1.80;99.90;;;;;;5086948;28;20226;-67
2022/03/16 02:48:30;;;;;;;12.10;9.67;;;1.60;99.90;;;;;;5074563;28;20424;-71
2022/03/16 02:50:55;;;;;;;9.40;8.53;;;1.60;99.90;;;;;;5082372;28;20936;-64
2022/03/16 02:53:21;;;;;;;12.43;9.07;;;1.50;99.90;;;;;;5092965;28;20515;-64
2022/03/16 02:55:47;;;;;;;15.53;10.07;;;1.30;99.90;;;;;;5093486;28;20174;-69
2022/03/16 02:58:14;;;;;;;10.40;8.47;;;1.10;99.90;;;;;;5095244;28;20177;-64
2022/03/16 03:00:41;;;;;;;12.97;9.70;;;1.10;99.90;;;;;;5077640;28;20427;-69
2022/03/16 03:03:06;;;;;;;10.00;8.73;;;1.00;99.90;;;;;;5074763;28;20428;-69
2022/03/16 03:05:32;;;;;;;13.70;11.20;;;1.00;99.90;;;;;;5089077;28;20420;-69
2022/03/16 03:07:59;;;;;;;16.23;11.43;;;1.00;99.90;;;;;;5094965;28;20240;-64
2022/03/16 03:10:25;;;;;;;11.27;10.13;;;1.10;99.90;;;;;;5081588;28;20631;-70
2022/03/16 03:12:51;;;;;;;13.90;9.98;;;1.10;99.90;;;;;;5074129;28;20566;-64
2022/03/16 03:15:16;;;;;;;10.93;8.83;;;1.10;99.90;;;;;;5085655;28;20181;-65
2022/03/16 03:17:43;;;;;;;12.57;10.63;;;1.20;99.90;;;;;;5094798;28;20166;-69
2022/03/16 03:20:09;;;;;;;11.20;9.10;;;1.30;99.90;;;;;;5084202;28;20166;-65
2022/03/16 03:22:36;;;;;;;12.27;9.33;;;1.30;99.90;;;;;;5074548;28;20412;-64
2022/03/16 03:25:02;;;;;;;21.77;8.97;;;1.50;99.90;;;;;;5074672;28;20416;-69
2022/03/16 03:27:30;;;;;;;11.30;8.80;;;1.60;99.90;;;;;;5075041;28;20834;-65
2022/03/16 03:29:56;;;;;;;18.57;9.00;;;1.60;99.90;;;;;;5079319;28;20815;-69
2022/03/16 03:32:22;;;;;;;11.23;8.13;;;1.70;99.90;;;;;;5094483;28;20451;-64
2022/03/16 03:34:51;;;;;;;12.40;8.47;;;1.80;99.90;;;;;;5089984;28;20198;-69
2022/03/16 03:37:20;;;;;;;10.23;9.13;;;1.90;99.90;;;;;;5074219;28;20567;-64
2022/03/16 03:39:46;;;;;;;11.10;8.93;;;1.80;99.90;;;;;;5057358;28;20879;-64
2022/03/16 03:42:11;;;;;;;19.10;9.07;;;1.60;99.90;;;;;;5074089;28;20553;-69
2022/03/16 03:44:37;;;;;;;13.00;9.10;;;1.50;99.90;;;;;;5075120;28;20487;-70
2022/03/16 03:47:07;;;;;;;10.60;9.00;;;1.70;99.90;;;;;;5094063;28;20264;-63
2022/03/16 03:49:35;;;;;;;11.83;7.70;;;1.70;99.90;;;;;;5092719;28;20391;-68
2022/03/16 03:52:00;;;;;;;10.77;9.67;;;1.70;99.90;;;;;;5073539;28;20486;-69
2022/03/16 03:54:26;;;;;;;10.67;9.57;;;1.70;99.90;;;;;;5080445;28;20907;-64
2022/03/16 03:56:52;;;;;;;19.43;9.80;;;1.70;99.90;;;;;;5056153;28;20171;-70
2022/03/16 03:59:18;;;;;;;14.53;8.03;;;1.70;99.90;;;;;;5073491;28;20518;-69
2022/03/16 04:01:43;;;;;;;11.40;7.57;;;1.80;99.90;;;;;;5093615;28;20197;-65
2022/03/16 04:04:09;;;;;;;9.03;8.20;;;1.90;99.90;;;;;;5075866;28;20269;-65
2022/03/16 04:06:35;;;;;;;13.40;8.60;;;1.90;99.90;;;;;;5073337;28;20170;-64
2022/03/16 04:09:00;;;;;;;12.43;9.23;;;1.90;99.90;;;;;;5077521;28;20186;-64
2022/03/16 04:11:26;;;;;;;12.17;8.77;;;1.90;99.90;;;;;;5073350;28;20188;-65
2022/03/16 04:13:52;;;;;;;9.67;8.03;;;1.70;99.90;;;;;;5087097;28;20538;-64
2022/03/16 04:16:18;;;;;;;11.47;8.97;;;1.60;99.90;;;;;;5093285;28;20173;-69
2022/03/16 04:18:43;;;;;;;10.07;8.17;;;1.50;99.90;;;;;;5080574;28;20178;-70
2022/03/16 04:21:09;;;;;;;13.27;9.70;;;1.40;99.90;;;;;;5073429;28;20193;-69
2022/03/16 04:23:34;;;;;;;18.90;9.70;;;1.40;99.90;;;;;;5077864;28;20582;-64
2022/03/16 04:26:00;;;;;;;11.50;9.50;;;1.30;99.90;;;;;;5055676;28;20590;-69
2022/03/16 04:28:26;;;;;;;12.30;10.03;;;1.30;99.90;;;;;;5081073;28;20530;-64
2022/03/16 04:30:52;;;;;;;8.67;7.87;;;1.30;99.90;;;;;;5092702;28;20657;-64
2022/03/16 04:33:17;;;;;;;9.70;8.77;;;1.20;99.90;;;;;;5086917;28;20566;-64
2022/03/16 04:35:43;;;;;;;16.10;9.83;;;1.20;99.90;;;;;;5073066;28;20404;-65
2022/03/16 04:38:09;;;;;;;11.73;9.37;;;1.20;99.90;;;;;;5087383;28;20532;-65
2022/03/16 04:40:35;;;;;;;10.57;8.30;;;1.20;99.90;;;;;;5072321;28;20216;-69
2022/03/16 04:43:00;;;;;;;12.90;8.43;;;1.10;99.90;;;;;;5074689;28;20281;-70
2022/03/16 04:45:26;;;;;;;9.67;8.50;;;1.00;99.90;;;;;;5093146;28;20839;-66
2022/03/16 04:47:52;;;;;;;11.17;8.97;;;0.90;99.90;;;;;;5092384;28;20168;-66
2022/03/16 04:50:18;;;;;;;8.40;7.33;;;0.90;99.90;;;;;;5074905;28;20473;-70
2022/03/16 04:52:46;;;;;;;13.13;9.47;;;0.90;99.90;;;;;;5092343;28;20223;-69
2022/03/16 04:55:12;;;;;;;10.30;8.00;;;0.90;99.90;;;;;;5075201;28;20819;-64
2022/03/16 04:57:38;;;;;;;10.40;8.73;;;0.80;99.90;;;;;;5056544;28;20408;-64
2022/03/16 05:00:05;;;;;;;9.77;8.27;;;0.80;99.90;;;;;;5072034;28;20396;-68
2022/03/16 05:02:30;;;;;;;12.57;8.53;;;0.80;99.90;;;;;;5084419;28;20439;-65
2022/03/16 05:04:56;;;;;;;10.20;7.90;;;0.70;99.90;;;;;;5092400;28;20772;-69
2022/03/16 05:07:21;;;;;;;14.10;9.30;;;0.70;99.90;;;;;;5093105;28;20166;-69
2022/03/16 05:09:47;;;;;;;14.90;10.27;;;0.80;99.90;;;;;;5081633;28;20677;-63
2022/03/16 05:12:13;;;;;;;14.57;10.13;;;0.80;99.90;;;;;;5076862;28;20231;-65
2022/03/16 05:14:38;;;;;;;17.87;9.70;;;0.90;99.90;;;;;;5088336;28;20188;-64
2022/03/16 05:17:04;;;;;;;10.90;9.70;;;0.90;1.00;;;;;;5097149;28;20191;-69
2022/03/16 05:19:30;;;;;;;18.47;8.97;;;0.90;1.00;;;;;;5091305;28;20278;-65
2022/03/16 05:21:56;;;;;;;13.40;8.50;;;1.00;1.00;;;;;;5096848;28;20423;-69
2022/03/16 05:24:23;;;;;;;14.20;9.10;;;1.10;1.00;;;;;;5095186;28;20508;-70
2022/03/16 05:26:50;;;;;;;11.87;9.30;;;1.20;1.00;;;;;;5096970;28;20410;-70
2022/03/16 05:29:16;;;;;;;14.82;9.18;;;1.10;1.00;;;;;;5089477;28;20451;-70
2022/03/16 05:31:42;;;;;;;11.88;9.15;;;0.80;99.90;;;;;;5076390;28;20267;-65
2022/03/16 05:34:07;;;;;;;12.30;8.73;;;0.80;99.90;;;;;;5090336;28;20709;-62
2022/03/16 05:36:33;;;;;;;10.50;7.80;;;0.70;99.90;;;;;;5076502;28;20174;-69
2022/03/16 05:38:59;;;;;;;13.30;8.60;;;0.70;99.90;;;;;;5059419;28;20209;-62
2022/03/16 05:41:24;;;;;;;11.63;8.53;;;0.60;99.90;;;;;;5096738;28;20235;-63
2022/03/16 05:43:50;;;;;;;12.97;9.17;;;0.60;1.00;;;;;;5077769;28;20172;-62
2022/03/16 05:46:16;;;;;;;10.27;9.10;;;0.60;1.00;;;;;;5080034;28;20568;-69
2022/03/16 05:48:42;;;;;;;18.13;11.50;;;0.50;1.00;;;;;;5095507;28;20482;-71
2022/03/16 05:51:08;;;;;;;12.47;8.70;;;0.50;1.00;;;;;;5077032;28;20186;-70
2022/03/16 05:53:34;;;;;;;10.23;7.07;;;0.40;1.00;;;;;;5075993;28;20197;-65
2022/03/16 05:56:00;;;;;;;12.97;7.80;;;0.40;1.00;;;;;;5093397;28;20583;-70
2022/03/16 05:58:26;;;;;;;15.05;8.18;;;0.40;1.00;;;;;;5094956;28;20413;-64
2022/03/16 06:00:51;;;;;;;11.57;8.90;;;0.50;1.00;;;;;;5088553;28;20222;-64
2022/03/16 06:03:17;;;;;;;12.40;9.13;;;0.50;1.00;;;;;;5089114;28;20261;-70
2022/03/16 06:05:43;;;;;;;11.83;7.40;;;0.40;1.00;;;;;;5079455;28;20173;-68
2022/03/16 06:08:08;;;;;;;9.73;7.80;;;0.30;1.00;;;;;;5085863;28;20173;-63
2022/03/16 06:10:34;;;;;;;9.27;7.10;;;0.30;1.00;;;;;;5095040;28;20706;-64
2022/03/16 06:13:04;;;;;;;9.23;6.60;;;0.30;1.00;;;;;;5095133;28;20204;-63
2022/03/16 06:15:37;;;;;;;10.80;7.25;;;0.40;1.00;;;;;;5096096;28;20169;-63
2022/03/16 06:18:03;;;;;;;9.77;7.40;;;0.50;1.00;;;;;;5088161;28;20185;-65
2022/03/16 06:20:28;;;;;;;10.33;7.80;;;0.50;1.00;;;;;;5073793;28;20627;-69
2022/03/16 06:22:54;;;;;;;19.13;8.13;;;0.60;1.00;;;;;;5079453;28;20208;-65
2022/03/16 06:25:20;;;;;;;10.90;8.53;;;0.70;1.00;;;;;;5077037;28;20701;-70
2022/03/16 06:27:46;;;;;;;8.67;7.83;;;0.90;1.00;;;;;;5092262;28;20434;-69
2022/03/16 06:30:12;;;;;;;11.77;8.37;;;1.10;1.00;;;;;;5074476;28;20428;-64
2022/03/16 06:32:38;;;;;;;8.17;7.37;;;1.20;1.00;;;;;;5080359;28;20197;-69
2022/03/16 06:35:05;;;;;;;13.70;7.87;;;1.30;1.00;;;;;;5094998;28;20392;-69
2022/03/16 06:37:31;;;;;;;11.90;7.10;;;1.20;1.00;;;;;;5094969;28;20161;-64
2022/03/16 06:39:57;;;;;;;12.23;7.90;;;1.30;1.00;;;;;;5094790;28;20438;-69
2022/03/16 06:42:23;;;;;;;14.77;8.50;;;1.40;1.00;;;;;;5094735;28;20436;-63
2022/03/16 06:44:48;;;;;;;6.97;6.17;;;1.50;1.00;;;;;;5080212;28;20582;-64
2022/03/16 06:47:14;;;;;;;7.03;6.33;;;1.50;1.00;;;;;;5075269;28;20176;-69
2022/03/16 06:49:40;;;;;;;10.93;7.53;;;1.50;1.00;;;;;;5094221;28;20283;-69
2022/03/16 06:52:05;;;;;;;14.50;6.93;;;1.60;1.00;;;;;;5086272;28;20252;-68
2022/03/16 06:54:31;;;;;;;11.10;7.37;;;1.70;1.00;;;;;;5074635;28;20172;-70
2022/03/16 06:56:57;;;;;;;7.60;6.30;;;1.70;1.00;;;;;;5075079;28;20171;-69
2022/03/16 06:59:22;;;;;;;7.93;6.67;;;1.80;1.00;;;;;;5074056;28;20166;-64
2022/03/16 07:01:48;;;;;;;16.43;5.37;;;1.80;1.00;;;;;;5074828;28;20213;-69
2022/03/16 07:04:13;;;;;;;7.80;6.77;;;1.90;1.00;;;;;;5074932;28;20689;-70
2022/03/16 07:06:39;;;;;;;10.10;7.50;;;2.00;1.00;;;;;;5086917;28;20201;-63
2022/03/16 07:09:05;;;;;;;15.03;8.10;;;2.20;1.00;;;;;;5094106;28;20166;-70
2022/03/16 07:11:30;;;;;;;17.07;8.30;;;2.20;1.00;;;;;;5076719;28;20485;-69
2022/03/16 07:16:41;;;;;;;12.30;7.70;;;2.20;1.00;;;;;;5095010;28;20177;-65
2022/03/16 07:19:07;;;;;;;8.90;7.47;;;2.30;1.00;;;;;;5075804;28;20841;-69
2022/03/16 07:21:33;;;;;;;12.73;7.90;;;2.40;1.00;;;;;;5075646;28;20476;-64
2022/03/16 07:23:59;;;;;;;9.00;6.70;;;2.50;1.00;;;;;;5074707;28;20469;-69
2022/03/16 07:26:25;;;;;;;8.47;6.90;;;2.70;1.00;;;;;;5056892;28;20202;-69
2022/03/16 07:28:51;;;;;;;7.73;6.73;;;2.80;1.00;;;;;;5073612;28;20182;-64
2022/03/16 07:31:17;;;;;;;10.30;7.13;;;2.80;1.00;;;;;;5092626;28;20194;-66
2022/03/16 07:33:43;;;;;;;12.20;8.30;;;2.90;1.00;;;;;;5094442;28;20250;-70
2022/03/16 07:36:08;;;;;;;12.00;7.37;;;3.00;1.00;;;;;;5094561;28;20404;-70
2022/03/16 07:38:34;;;;;;;10.93;6.30;;;3.00;1.00;;;;;;5093678;28;20177;-70
2022/03/16 07:41:02;;;;;;;17.13;8.23;;;3.10;1.00;;;;;;5094325;28;20165;-70
2022/03/16 07:43:29;;;;;;;9.30;6.83;;;3.10;1.00;;;;;;5089694;28;20170;-70
2022/03/16 07:45:54;;;;;;;8.90;6.77;;;3.20;1.00;;;;;;5074193;28;20412;-63
2022/03/16 07:48:20;;;;;;;13.93;7.03;;;3.20;1.00;;;;;;5073478;28;20418;-65
2022/03/16 07:50:46;;;;;;;6.67;5.97;;;3.20;1.00;;;;;;5073031;28;20162;-68
2022/03/16 07:53:11;;;;;;;8.43;7.00;;;3.20;1.00;;;;;;5073938;28;20194;-64
2022/03/16 07:55:37;;;;;;;7.43;6.73;;;3.20;1.00;;;;;;5073795;28;20171;-64
2022/03/16 07:58:02;;;;;;;18.37;7.30;;;3.40;1.00;;;;;;5083396;28;20173;-65
2022/03/16 08:00:28;;;;;;;13.97;6.47;;;3.50;1.00;;;;;;5093208;28;20178;-69
2022/03/16 08:02:54;;;;;;;11.53;7.30;;;3.40;1.00;;;;;;5094049;28;20186;-64
2022/03/16 08:05:21;;;;;;;12.27;7.37;;;3.50;1.00;;;;;;5094085;28;20165;-70
2022/03/16 08:07:47;;;;;;;9.50;7.33;;;3.50;1.00;;;;;;5093228;28;20888;-64
2022/03/16 08:10:13;;;;;;;10.77;7.03;;;3.40;1.00;;;;;;5090993;28;20423;-64
2022/03/16 08:12:39;;;;;;;10.87;7.33;;;3.50;1.00;;;;;;5078494;28;20460;-70
2022/03/16 08:15:06;;;;;;;11.37;7.03;;;3.50;1.00;;;;;;5092189;28;20226;-65
2022/03/16 08:17:32;;;;;;;10.70;7.27;;;3.50;1.00;;;;;;5093714;28;20406;-64
2022/03/16 08:19:57;;;;;;;8.77;7.47;;;3.60;1.00;;;;;;5075248;28;20424;-64
2022/03/16 08:22:29;;;;;;;9.60;6.73;;;3.70;1.00;;;;;;5084996;28;20446;-70
2022/03/16 08:24:55;;;;;;;11.50;8.83;;;3.80;1.00;;;;;;5092577;28;20201;-65
2022/03/16 08:27:22;;;;;;;10.03;9.00;;;3.80;1.00;;;;;;5084079;28;20506;-70
2022/03/16 08:29:48;;;;;;;10.60;7.97;;;3.80;1.00;;;;;;5092660;28;20445;-64
2022/03/16 08:32:14;;;;;;;15.50;8.30;;;3.80;1.00;;;;;;5083120;28;20786;-70
2022/03/16 08:34:40;;;;;;;11.27;7.07;;;3.90;1.00;;;;;;5087777;28;20479;-70
2022/03/16 08:37:05;;;;;;;16.30;9.30;;;3.90;1.00;;;;;;5080677;28;20175;-64
2022/03/16 08:39:31;;;;;;;9.23;6.73;;;4.00;1.00;;;;;;5092577;28;20534;-70
2022/03/16 08:41:56;;;;;;;10.80;8.20;;;3.90;1.00;;;;;;5088721;28;20201;-63
2022/03/16 08:44:23;;;;;;;12.23;7.83;;;3.70;1.00;;;;;;5092716;28;20638;-63
2022/03/16 08:46:50;;;;;;;11.10;7.53;;;3.70;1.00;;;;;;5092742;28;20185;-64
2022/03/16 08:49:16;;;;;;;13.30;8.80;;;3.50;1.00;;;;;;5081319;28;20477;-63
2022/03/16 08:51:42;;;;;;;11.53;7.67;;;3.50;1.00;;;;;;5079048;28;20459;-64
2022/03/16 08:54:08;;;;;;;8.80;6.30;;;3.60;1.00;;;;;;5093033;28;20418;-64
2022/03/16 08:56:33;;;;;;;9.30;7.10;;;3.70;1.00;;;;;;5088167;28;20171;-72
2022/03/16 08:59:00;;;;;;;10.77;7.57;;;3.90;1.00;;;;;;5072116;28;20217;-64
2022/03/16 09:01:26;;;;;;;7.83;6.93;;;4.00;1.00;;;;;;5075016;28;20187;-64
2022/03/16 09:03:53;;;;;;;10.57;7.43;;;4.10;1.00;;;;;;5082696;28;21003;-69
2022/03/16 09:06:19;;;;;;;15.37;8.20;;;4.20;1.00;;;;;;5090042;28;20220;-64
2022/03/16 09:08:45;;;;;;;12.67;7.87;;;4.30;1.00;;;;;;5080039;28;20937;-71
2022/03/16 09:11:11;;;;;;;8.60;7.13;;;4.50;1.00;;;;;;5055051;28;20445;-69
2022/03/16 09:13:36;;;;;;;10.23;7.20;;;4.50;1.00;;;;;;5082534;28;20901;-63
2022/03/16 09:16:03;;;;;;;10.03;7.50;;;4.50;1.00;;;;;;5086941;28;20543;-64
2022/03/16 09:18:29;;;;;;;12.73;6.57;;;4.60;1.00;;;;;;5072211;28;20532;-71
2022/03/16 09:20:54;;;;;;;9.70;6.23;;;4.80;1.00;;;;;;5084376;28;20911;-64
2022/03/16 09:23:20;;;;;;;14.47;7.63;;;4.80;1.00;;;;;;5093105;28;20413;-69
2022/03/16 09:25:46;;;;;;;7.33;6.27;;;4.90;1.00;;;;;;5080822;28;20209;-68
2022/03/16 09:28:12;;;;;;;18.10;6.90;;;4.90;1.00;;;;;;5072780;28;20184;-68
2022/03/16 09:30:38;;;;;;;7.17;5.93;;;4.80;1.00;;;;;;5087757;28;20186;-63
2022/03/16 09:33:05;;;;;;;8.33;6.33;;;4.80;1.00;;;;;;5092659;28;20448;-67
2022/03/16 09:35:33;;;;;;;9.03;6.97;;;4.90;1.00;;;;;;5088478;28;20191;-64
2022/03/16 09:37:58;;;;;;;9.80;7.30;;;5.00;1.00;;;;;;5092138;28;20460;-70
2022/03/16 09:40:25;;;;;;;10.30;6.80;;;4.90;1.00;;;;;;5078437;28;20427;-69
2022/03/16 09:42:52;;;;;;;7.43;6.30;;;5.00;1.00;;;;;;5054587;28;20201;-64
2022/03/16 09:45:20;;;;;;;9.70;6.93;;;5.10;1.00;;;;;;5084065;28;20445;-70
2022/03/16 09:47:47;;;;;;;8.53;6.87;;;5.10;1.00;;;;;;5091088;28;20911;-68
2022/03/16 09:50:14;;;;;;;10.43;7.60;;;5.20;1.00;;;;;;5081127;28;20864;-69
2022/03/16 09:52:40;;;;;;;11.17;6.53;;;5.20;1.00;;;;;;5072151;28;20465;-69
2022/03/16 09:55:06;;;;;;;8.90;5.20;;;5.30;1.00;;;;;;5089111;28;20415;-67
2022/03/16 09:57:33;;;;;;;8.40;6.70;;;5.30;1.00;;;;;;5096245;28;20396;-63
2022/03/16 10:00:01;;;;;;;8.00;6.20;;;5.30;1.00;;;;;;5081624;28;20481;-70
2022/03/16 10:02:27;;;;;;;8.23;6.87;;;5.40;1.00;;;;;;5085931;28;20442;-65
2022/03/16 10:04:54;;;;;;;7.93;5.87;;;5.50;99.90;;;;;;5082148;28;20412;-63
2022/03/16 10:07:27;;;;;;;9.47;5.80;;;5.60;99.90;;;;;;5076038;28;20408;-63
2022/03/16 10:15:21;;;;;;;8.50;5.83;;;6.10;99.90;;;;;;5076778;28;20447;-63
2022/03/16 10:17:49;;;;;;;6.40;5.07;;;6.20;99.90;;;;;;5079242;28;20781;-64
2022/03/16 10:20:21;;;;;;;6.53;5.47;;;6.30;99.90;;;;;;5094457;28;20177;-63
2022/03/16 10:22:55;;;;;;;14.10;5.17;;;6.40;99.90;;;;;;5094901;28;20498;-70
2022/03/16 10:25:20;;;;;;;6.30;5.80;;;6.50;99.90;;;;;;5095960;28;20752;-63
2022/03/16 10:27:46;;;;;;;6.33;5.73;;;6.60;99.90;;;;;;5093605;28;20414;-69
2022/03/16 10:30:13;;;;;;;8.03;5.67;;;6.70;99.90;;;;;;5074215;28;20400;-63
2022/03/16 10:32:39;;;;;;;5.87;5.37;;;6.80;99.90;;;;;;5087675;28;20554;-64
2022/03/16 10:35:05;;;;;;;8.00;6.00;;;6.80;99.90;;;;;;5085931;28;20443;-67
2022/03/16 10:37:34;;;;;;;10.17;6.40;;;6.80;99.90;;;;;;5083708;28;20451;-65
2022/03/16 10:40:01;;;;;;;6.17;5.57;;;6.80;99.90;;;;;;5092278;28;20428;-65
2022/03/16 10:48:25;;;;;;;7.10;5.63;;;7.00;99.90;;;;;;5073465;28;20440;-62
2022/03/16 10:50:56;;;;;;;8.57;5.30;;;6.90;99.90;;;;;;5074859;28;20519;-68
2022/03/16 10:53:28;;;;;;;7.43;6.63;;;6.90;99.90;;;;;;5090803;28;20880;-66
2022/03/16 10:55:56;;;;;;;6.27;5.47;;;7.00;99.90;;;;;;5076658;28;20963;-69
2022/03/16 10:58:23;;;;;;;5.70;5.20;;;7.20;99.90;;;;;;5086518;28;20488;-64
2022/03/16 11:00:52;;;;;;;9.10;5.40;;;7.30;99.90;;;;;;5080053;28;20409;-64
2022/03/16 11:03:22;;;;;;;6.97;5.47;;;7.50;99.90;;;;;;5092876;28;20446;-63
2022/03/16 11:05:48;;;;;;;7.00;5.77;;;7.60;99.90;;;;;;5086785;28;20412;-68
2022/03/16 11:08:15;;;;;;;6.90;5.70;;;7.90;99.90;;;;;;5093895;28;20440;-63
2022/03/16 11:10:42;;;;;;;9.93;5.80;;;8.20;99.90;;;;;;5069667;28;20953;-67
2022/03/16 11:13:28;;;;;;;6.53;5.80;;;8.40;99.90;;;;;;5082916;28;20457;-67
2022/03/16 11:15:55;;;;;;;8.43;6.30;;;8.70;99.90;;;;;;5059235;28;20432;-63
2022/03/16 11:18:23;;;;;;;6.03;5.37;;;8.90;99.90;;;;;;5087674;28;20564;-70
2022/03/16 11:20:50;;;;;;;7.80;6.53;;;8.80;99.90;;;;;;5076335;28;20429;-66
2022/03/16 11:26:35;;;;;;;9.77;5.77;;;9.00;99.90;;;;;;5037897;28;20486;-62
2022/03/16 11:29:01;;;;;;;7.57;5.20;;;9.20;97.20;;;;;;5105479;28;20439;-64
2022/03/16 11:31:31;;;;;;;6.20;4.80;;;9.30;96.80;;;;;;5064973;28;21102;-63
2022/03/16 11:33:59;;;;;;;7.10;5.50;;;9.60;80.90;;;;;;5056673;28;20606;-63
2022/03/16 11:36:38;;;;;;;7.70;6.30;;;9.60;41.70;;;;;;5074214;28;20923;-67
2022/03/16 11:39:17;;;;;;;9.23;6.00;;;9.60;11.70;;;;;;5080998;28;20475;-63
2022/03/16 11:41:55;;;;;;;8.00;5.03;;;9.60;8.40;;;;;;5081122;28;20496;-65
2022/03/16 11:44:26;;;;;;;6.33;5.73;;;9.80;4.10;;;;;;5074549;28;20400;-62
2022/03/16 11:46:53;;;;;;;6.87;6.13;;;9.80;1.00;;;;;;5086719;28;20427;-63
2022/03/16 11:49:29;;;;;;;8.90;6.10;;;9.90;1.00;;;;;;5080627;28;20439;-63
2022/03/16 11:51:59;;;;;;;8.47;6.13;;;10.20;1.00;;;;;;5082002;28;20926;-70
2022/03/16 11:54:52;;;;;;;7.20;6.23;;;10.40;1.00;;;;;;5088223;28;20948;-70
2022/03/16 11:57:51;;;;;;;8.17;5.50;;;10.90;1.00;;;;;;5092282;28;20495;-71
2022/03/16 12:00:17;;;;;;;8.00;4.93;;;11.10;1.00;;;;;;5060368;28;20437;-63
2022/03/16 12:02:55;;;;;;;6.80;4.70;;;11.30;1.00;;;;;;5091836;28;20447;-63
2022/03/16 12:05:22;;;;;;;9.83;5.30;;;11.50;1.00;;;;;;5092689;28;20443;-70
2022/03/16 12:08:11;;;;;;;7.27;5.77;;;11.80;1.00;;;;;;5092698;28;20447;-71
2022/03/16 12:10:46;;;;;;;5.70;5.20;;;12.10;1.00;;;;;;5088488;28;20534;-70
2022/03/16 12:13:12;;;;;;;7.63;6.20;;;12.10;1.00;;;;;;5093058;28;20463;-63
2022/03/16 12:15:39;;;;;;;9.67;6.03;;;12.40;1.00;;;;;;5089925;28;20432;-70
2022/03/16 12:18:06;;;;;;;10.17;6.30;;;12.50;1.00;;;;;;5088184;28;20767;-69
2022/03/16 12:20:37;;;;;;;7.80;6.00;;;12.60;1.00;;;;;;5069380;28;20805;-65
2022/03/16 12:23:15;;;;;;;5.20;4.70;;;12.50;1.00;;;;;;5055354;28;20549;-64
2022/03/16 12:25:46;;;;;;;7.83;5.53;;;12.40;1.00;;;;;;5088043;28;20427;-69
2022/03/16 12:31:16;;;;;;;11.03;6.77;;;12.50;1.00;;;;;;5087772;28;20446;-63
2022/03/16 12:33:45;;;;;;;7.27;5.40;;;12.30;1.00;;;;;;5079560;28;20914;-67
2022/03/16 12:36:14;;;;;;;6.10;5.23;;;12.00;99.90;;;;;;5082915;28;20868;-63
2022/03/16 12:38:47;;;;;;;7.47;5.13;;;11.80;99.90;;;;;;5068771;28;20499;-63
2022/03/16 12:44:01;;;;;;;8.00;5.27;;;11.90;99.90;;;;;;5078108;28;20492;-63
2022/03/16 12:46:33;;;;;;;7.10;5.00;;;11.80;99.90;;;;;;5085195;28;20435;-62
2022/03/16 12:49:13;;;;;;;8.00;5.60;;;11.80;99.90;;;;;;5086924;28;20408;-68
2022/03/16 12:51:43;;;;;;;12.17;5.47;;;11.80;99.90;;;;;;5074684;28;20463;-70
2022/03/16 12:54:10;;;;;;;6.87;4.90;;;11.80;99.90;;;;;;5086620;28;20726;-67
2022/03/16 12:56:45;;;;;;;7.50;5.23;;;11.80;99.90;;;;;;5081446;28;20386;-63
2022/03/16 12:59:11;;;;;;;8.93;4.90;;;11.80;99.90;;;;;;5090443;28;20407;-62
2022/03/16 13:01:38;;;;;;;8.07;4.70;;;11.80;99.90;;;;;;5083353;28;20943;-65
2022/03/16 13:04:08;;;;;;;7.13;4.90;;;11.90;99.90;;;;;;5083148;28;20395;-71
2022/03/16 13:06:34;;;;;;;7.17;4.50;;;12.00;99.90;;;;;;5076562;28;20435;-68
2022/03/16 13:09:05;;;;;;;8.83;5.20;;;12.40;99.90;;;;;;5086680;28;20428;-63
2022/03/16 13:11:32;;;;;;;9.10;4.73;;;12.80;99.90;;;;;;5073542;28;20418;-66
2022/03/16 13:14:23;;;;;;;9.83;5.27;;;13.20;99.90;;;;;;5081062;28;20434;-69
2022/03/16 13:16:55;;;;;;;5.23;3.90;;;13.30;99.90;;;;;;5083953;28;20491;-63